Time;durP1;ratioP1;P1;durP2;ratioP2;P2;SDS_P1;SDS_P2;PMS_P1;PMS_P2;Temp;Humidity;BMP_temperature;BMP_pressure;BME280_temperature;BME280_humidity;BME280_pressure;Samples;Min_cycle;Max_cycle;Signal;HPM_P1;HPM_P2
2021/05/05 00:00:32;;;;;;;0.77;0.32;;;;;;;5.19;63.71;99535.31;6249376;23;20004;-72
2021/05/05 00:02:58;;;;;;;2.65;0.40;;;;;;;5.14;64.01;99531.72;6247951;23;20019;-78
2021/05/05 00:05:24;;;;;;;0.75;0.40;;;;;;;5.10;64.18;99536.03;6220318;23;20008;-76
2021/05/05 00:07:50;;;;;;;1.65;0.60;;;;;;;5.02;64.09;99529.97;6241987;23;20066;-75
2021/05/05 00:10:16;;;;;;;0.30;0.25;;;;;;;4.99;64.46;99535.06;6243456;23;20004;-73
2021/05/05 00:12:42;;;;;;;1.77;0.40;;;;;;;4.88;64.93;99523.28;6238210;23;20023;-73
2021/05/05 00:15:16;;;;;;;1.45;0.40;;;;;;;4.84;65.09;99522.16;6243225;23;20008;-75
2021/05/05 00:17:44;;;;;;;2.17;0.60;;;;;;;4.84;65.28;99522.94;6214896;23;20006;-73
2021/05/05 00:20:13;;;;;;;0.40;0.32;;;;;;;4.76;64.63;99520.69;6246415;23;20011;-76
2021/05/05 00:22:39;;;;;;;0.55;0.28;;;;;;;4.69;65.31;99518.16;6217092;23;20449;-73
2021/05/05 00:25:06;;;;;;;1.00;0.40;;;;;;;4.54;65.31;99509.78;6219024;23;20030;-75
2021/05/05 00:27:34;;;;;;;2.17;0.30;;;;;;;4.51;65.11;99513.00;6216319;23;20016;-76
2021/05/05 00:30:00;;;;;;;2.88;0.65;;;;;;;4.47;65.68;99506.47;6241982;23;20069;-75
2021/05/05 00:32:26;;;;;;;1.33;0.70;;;;;;;4.50;66.23;99528.44;6242073;23;20011;-75
2021/05/05 00:34:52;;;;;;;0.70;0.40;;;;;;;4.48;65.77;99527.03;6241588;23;20008;-74
2021/05/05 00:37:17;;;;;;;0.45;0.45;;;;;;;4.34;65.97;99521.97;6238639;23;20024;-74
2021/05/05 00:39:43;;;;;;;2.15;0.30;;;;;;;4.25;65.94;99509.91;6234697;23;20430;-75
2021/05/05 00:42:08;;;;;;;0.75;0.57;;;;;;;4.28;67.32;99527.53;6244230;23;20007;-75
2021/05/05 00:44:34;;;;;;;1.00;0.52;;;;;;;4.33;67.98;99533.03;6241567;23;20008;-75
2021/05/05 00:47:00;;;;;;;2.20;0.95;;;;;;;4.28;67.45;99530.25;6240676;23;20062;-74
2021/05/05 00:49:26;;;;;;;0.73;0.73;;;;;;;4.15;67.54;99515.16;6239972;23;20422;-75
2021/05/05 00:51:52;;;;;;;1.00;0.73;;;;;;;4.14;68.11;99524.34;6242560;23;20375;-75
2021/05/05 00:54:17;;;;;;;1.40;0.73;;;;;;;4.13;68.39;99517.28;6215102;23;20012;-74
2021/05/05 00:56:46;;;;;;;1.25;0.70;;;;;;;4.13;68.73;99536.22;6238597;23;20481;-74
2021/05/05 00:59:12;;;;;;;3.00;0.63;;;;;;;4.09;68.69;99532.38;6215968;23;20004;-75
2021/05/05 01:01:42;;;;;;;1.25;0.63;;;;;;;4.05;69.58;99542.06;6210888;23;20426;-75
2021/05/05 01:04:08;;;;;;;0.93;0.63;;;;;;;4.08;69.17;99539.66;6244412;23;20054;-74
2021/05/05 01:06:35;;;;;;;7.05;1.00;;;;;;;4.00;70.15;99530.09;6211910;23;20016;-75
2021/05/05 01:09:02;;;;;;;2.17;0.95;;;;;;;3.95;70.47;99519.16;6217800;23;20008;-75
2021/05/05 01:14:16;;;;;;;;;;;;;;;;;;;;;
2021/05/05 01:16:42;;;;;;;2.47;0.85;;;;;;;3.95;70.50;99532.69;6243316;23;20075;-74
2021/05/05 01:19:07;;;;;;;1.45;0.70;;;;;;;3.95;70.97;99537.28;6217150;23;20016;-73
2021/05/05 01:21:33;;;;;;;1.77;0.77;;;;;;;3.94;71.59;99536.47;6217705;23;20011;-73
2021/05/05 01:23:59;;;;;;;3.75;0.77;;;;;;;3.94;71.24;99536.47;6194173;23;20092;-76
2021/05/05 01:26:26;;;;;;;2.17;1.58;;;;;;;3.89;71.50;99530.97;6218225;23;20230;-75
2021/05/05 01:28:57;;;;;;;3.35;1.42;;;;;;;3.88;71.67;99528.50;6248999;23;20000;-78
2021/05/05 01:31:22;;;;;;;1.23;0.60;;;;;;;3.85;71.14;99537.91;6249458;23;20062;-76
2021/05/05 01:33:48;;;;;;;3.03;0.73;;;;;;;3.87;70.98;99534.97;6218125;23;20000;-76
2021/05/05 01:36:17;;;;;;;2.45;0.63;;;;;;;3.82;72.11;99533.00;6248173;23;20019;-75
2021/05/05 01:38:43;;;;;;;2.72;0.77;;;;;;;3.77;72.06;99524.81;6244013;23;20067;-75
2021/05/05 01:41:08;;;;;;;1.10;0.60;;;;;;;3.79;71.57;99525.38;6224001;23;20012;-76
2021/05/05 01:43:34;;;;;;;0.85;0.73;;;;;;;3.79;71.51;99522.66;6220564;23;20015;-74
2021/05/05 01:45:59;;;;;;;1.75;1.02;;;;;;;3.71;72.48;99531.16;6222403;23;20032;-75
2021/05/05 01:48:25;;;;;;;6.57;1.00;;;;;;;3.74;72.30;99538.78;6213204;23;20019;-74
2021/05/05 01:50:50;;;;;;;3.17;1.55;;;;;;;3.72;72.99;99527.41;6195368;23;20016;-75
2021/05/05 01:53:17;;;;;;;1.88;0.73;;;;;;;3.71;72.92;99525.75;6190871;23;20016;-74
2021/05/05 01:55:43;;;;;;;4.07;1.00;;;;;;;3.64;73.94;99515.91;6194739;23;20128;-76
2021/05/05 01:58:09;;;;;;;1.30;1.13;;;;;;;3.68;74.03;99521.69;6248051;23;20002;-73
2021/05/05 02:00:35;;;;;;;1.60;1.05;;;;;;;3.70;73.83;99529.53;6216622;23;20086;-74
2021/05/05 02:03:00;;;;;;;1.35;0.75;;;;;;;3.63;73.50;99525.09;6216912;23;20003;-74
2021/05/05 02:05:26;;;;;;;4.03;1.38;;;;;;;3.64;73.41;99524.03;6207685;23;20039;-75
2021/05/05 02:07:52;;;;;;;1.40;0.80;;;;;;;3.58;73.42;99516.91;6220264;23;20008;-75
2021/05/05 02:10:19;;;;;;;6.20;1.23;;;;;;;3.57;74.32;99515.25;6215770;23;20014;-74
2021/05/05 02:12:45;;;;;;;1.63;0.75;;;;;;;3.54;73.73;99507.63;6232190;22;20434;-74
2021/05/05 02:15:12;;;;;;;3.80;0.85;;;;;;;3.53;74.51;99503.28;6204439;23;20023;-73
2021/05/05 02:17:38;;;;;;;4.22;0.50;;;;;;;3.53;74.52;99524.91;6228226;23;20003;-76
2021/05/05 02:20:09;;;;;;;1.05;0.95;;;;;;;3.52;74.30;99515.16;6227420;23;20004;-75
2021/05/05 02:22:35;;;;;;;3.60;1.10;;;;;;;3.44;74.25;99510.13;6227680;23;20082;-74
2021/05/05 02:25:03;;;;;;;2.15;0.95;;;;;;;3.44;74.54;99520.94;6195239;23;20419;-75
2021/05/05 02:27:30;;;;;;;10.32;1.38;;;;;;;3.43;75.45;99519.28;6212968;23;20003;-74
2021/05/05 02:29:55;;;;;;;1.35;1.00;;;;;;;3.43;75.35;99524.69;6219904;23;20008;-76
2021/05/05 02:32:23;;;;;;;2.10;1.10;;;;;;;3.43;74.52;99530.94;6245901;23;20083;-75
2021/05/05 02:34:50;;;;;;;1.92;0.93;;;;;;;3.42;74.50;99531.19;6247533;23;20003;-75
2021/05/05 02:37:15;;;;;;;2.95;1.02;;;;;;;3.41;75.33;99529.53;6219994;23;19996;-75
2021/05/05 02:39:42;;;;;;;1.55;0.73;;;;;;;3.36;74.72;99524.03;6194262;23;20012;-74
2021/05/05 02:42:14;;;;;;;2.50;0.45;;;;;;;3.38;75.43;99516.50;6248655;23;19996;-76
2021/05/05 02:44:41;;;;;;;2.75;0.70;;;;;;;3.34;75.43;99520.75;6221450;23;20133;-75
2021/05/05 02:47:09;;;;;;;0.70;0.60;;;;;;;3.34;75.28;99531.56;6245094;23;20000;-75
2021/05/05 02:49:34;;;;;;;2.53;0.68;;;;;;;3.31;75.09;99532.84;6247488;23;20043;-75
2021/05/05 02:52:00;;;;;;;1.08;0.82;;;;;;;3.31;74.99;99533.69;6220237;23;20439;-74
2021/05/05 02:54:27;;;;;;;0.65;0.60;;;;;;;3.20;75.08;99529.13;6249979;23;20427;-75
2021/05/05 02:56:52;;;;;;;0.82;0.43;;;;;;;3.20;74.82;99526.44;6223718;23;20423;-73
2021/05/05 02:59:18;;;;;;;0.80;0.40;;;;;;;3.19;74.50;99535.59;6220298;23;20012;-74
2021/05/05 03:01:43;;;;;;;2.70;1.00;;;;;;;3.16;75.55;99532.56;6242598;23;20087;-73
2021/05/05 03:04:08;;;;;;;0.80;0.35;;;;;;;3.04;75.67;99521.75;6253386;23;20458;-74
2021/05/05 03:06:34;;;;;;;2.88;0.77;;;;;;;3.11;74.57;99539.50;6249277;23;20012;-75
2021/05/05 03:09:03;;;;;;;8.07;0.90;;;;;;;3.07;75.63;99537.53;6253245;23;20015;-74
2021/05/05 03:11:29;;;;;;;0.77;0.55;;;;;;;2.97;75.04;99538.94;6222102;23;20012;-75
2021/05/05 03:13:57;;;;;;;2.33;0.60;;;;;;;2.87;75.57;99521.69;6252863;22;20043;-75
2021/05/05 03:16:23;;;;;;;0.55;0.35;;;;;;;2.95;75.79;99546.47;6254420;23;20339;-77
2021/05/05 03:18:51;;;;;;;0.77;0.70;;;;;;;2.91;74.99;99547.97;6229445;23;19992;-75
2021/05/05 03:21:16;;;;;;;1.63;0.73;;;;;;;2.90;75.75;99554.44;6253888;23;20047;-77
2021/05/05 03:23:42;;;;;;;1.48;0.75;;;;;;;2.86;75.48;99547.88;6200685;23;20011;-77
2021/05/05 03:26:07;;;;;;;0.75;0.50;;;;;;;2.88;75.96;99559.25;6207878;23;20000;-76
2021/05/05 03:28:35;;;;;;;2.25;0.60;;;;;;;2.80;75.76;99554.22;6227004;23;20011;-75
2021/05/05 03:31:01;;;;;;;0.70;0.70;;;;;;;2.85;75.73;99564.28;6257868;23;20042;-75
2021/05/05 03:33:29;;;;;;;0.60;0.60;;;;;;;2.77;76.53;99554.69;6229133;23;20419;-76
2021/05/05 03:35:54;;;;;;;2.42;0.88;;;;;;;2.82;75.98;99565.63;6251743;23;20339;-75
2021/05/05 03:38:23;;;;;;;0.93;0.60;;;;;;;2.73;76.52;99558.91;6203568;23;20007;-73
2021/05/05 03:40:48;;;;;;;3.83;0.70;;;;;;;2.66;76.19;99552.81;6230916;23;20011;-76
2021/05/05 03:43:14;;;;;;;2.08;0.77;;;;;;;2.73;76.56;99567.00;6255080;23;20004;-75
2021/05/05 03:45:39;;;;;;;0.75;0.63;;;;;;;2.70;77.23;99559.38;6252985;23;20008;-74
2021/05/05 03:48:05;;;;;;;4.90;1.17;;;;;;;2.68;77.61;99567.72;6250873;23;20008;-76
2021/05/05 03:50:33;;;;;;;0.98;0.60;;;;;;;2.66;77.28;99561.75;6251785;23;20102;-76
2021/05/05 03:52:59;;;;;;;1.08;0.70;;;;;;;2.60;77.65;99558.09;6222490;23;20012;-75
2021/05/05 03:55:25;;;;;;;1.40;1.25;;;;;;;2.65;77.73;99567.38;6223765;23;20055;-76
2021/05/05 03:57:57;;;;;;;1.20;0.55;;;;;;;2.56;77.97;99554.22;6196942;23;20000;-75
2021/05/05 04:00:25;;;;;;;2.28;0.57;;;;;;;2.65;77.75;99572.78;6223686;23;20000;-75
2021/05/05 04:02:53;;;;;;;4.80;1.17;;;;;;;2.62;77.71;99574.06;6198055;23;20288;-74
2021/05/05 04:05:26;;;;;;;0.88;0.60;;;;;;;2.54;76.98;99571.69;6248929;23;20063;-74
2021/05/05 04:07:51;;;;;;;8.27;1.05;;;;;;;2.45;77.71;99563.13;6196519;23;20016;-75
2021/05/05 04:10:17;;;;;;;0.73;0.73;;;;;;;2.38;77.49;99568.66;6249723;23;20079;-75
2021/05/05 04:12:42;;;;;;;5.68;1.13;;;;;;;2.38;78.75;99562.41;6242759;22;20080;-74
2021/05/05 04:15:08;;;;;;;0.70;0.70;;;;;;;2.44;78.63;99583.09;6247185;23;20008;-74
2021/05/05 04:17:33;;;;;;;6.93;0.80;;;;;;;2.43;78.74;99576.03;6218519;23;20015;-73
2021/05/05 04:19:59;;;;;;;1.50;0.80;;;;;;;2.39;79.58;99570.28;6218874;23;20411;-75
2021/05/05 04:22:26;;;;;;;1.45;0.47;;;;;;;2.36;79.31;99575.34;6220868;23;20008;-74
2021/05/05 04:24:52;;;;;;;4.93;0.88;;;;;;;2.31;79.63;99561.69;6245986;23;20024;-76
2021/05/05 04:27:18;;;;;;;0.73;0.40;;;;;;;2.33;79.94;99570.41;6246464;23;20010;-72
2021/05/05 04:29:47;;;;;;;1.67;0.88;;;;;;;2.41;78.92;99589.78;6243383;23;20012;-73
2021/05/05 04:32:13;;;;;;;1.23;0.85;;;;;;;2.39;79.63;99585.66;6217164;23;20003;-74
2021/05/05 04:34:40;;;;;;;0.63;0.50;;;;;;;2.45;79.67;99595.50;6219066;23;20022;-75
2021/05/05 04:37:06;;;;;;;3.13;0.47;;;;;;;2.41;79.63;99583.53;6195006;23;20012;-74
2021/05/05 04:39:36;;;;;;;0.98;0.63;;;;;;;2.43;79.04;99593.06;6168844;23;20016;-74
2021/05/05 04:42:05;;;;;;;0.75;0.75;;;;;;;2.53;79.00;99608.69;6248437;23;20031;-74
2021/05/05 04:44:34;;;;;;;2.60;0.68;;;;;;;2.43;79.24;99603.03;6239111;23;20004;-75
2021/05/05 04:47:00;;;;;;;1.65;0.93;;;;;;;2.49;79.29;99610.19;6223459;23;20063;-74
2021/05/05 04:49:26;;;;;;;1.15;0.88;;;;;;;2.59;79.44;99618.53;6222738;23;20043;-76
2021/05/05 04:51:52;;;;;;;1.35;0.50;;;;;;;2.65;79.81;99621.38;6219634;23;20004;-75
2021/05/05 04:54:18;;;;;;;0.57;0.50;;;;;;;2.70;80.20;99610.69;6227519;23;20299;-74
2021/05/05 04:56:44;;;;;;;1.75;0.75;;;;;;;2.84;79.63;99622.09;6207120;23;20004;-74
2021/05/05 04:59:12;;;;;;;3.28;0.50;;;;;;;2.76;80.08;99601.63;6220695;23;20142;-73
2021/05/05 05:01:37;;;;;;;2.58;0.77;;;;;;;2.92;79.88;99625.25;6243995;23;20054;-74
2021/05/05 05:04:03;;;;;;;2.70;0.57;;;;;;;2.92;79.34;99627.13;6167536;23;20007;-75
2021/05/05 05:06:29;;;;;;;0.60;0.60;;;;;;;3.00;79.83;99632.16;6238171;23;20012;-73
2021/05/05 05:08:54;;;;;;;0.47;0.40;;;;;;;3.00;79.31;99629.47;6219215;23;20000;-73
2021/05/05 05:11:19;;;;;;;0.88;0.60;;;;;;;3.07;79.47;99632.88;6216260;23;20419;-72
2021/05/05 05:13:45;;;;;;;2.53;0.90;;;;;;;3.09;79.46;99632.63;6238393;22;20016;-73
2021/05/05 05:16:11;;;;;;;0.75;0.60;;;;;;;3.19;78.84;99646.38;6219572;23;20060;-73
2021/05/05 05:18:36;;;;;;;3.30;0.73;;;;;;;3.27;78.98;99646.03;6248454;23;20008;-74
2021/05/05 05:21:05;;;;;;;1.02;0.47;;;;;;;3.33;79.44;99652.38;6246993;23;20012;-73
2021/05/05 05:23:31;;;;;;;0.50;0.30;;;;;;;3.41;79.25;99657.38;6220749;23;20104;-74
2021/05/05 05:25:57;;;;;;;0.85;0.40;;;;;;;3.37;78.52;99636.47;6239781;23;20035;-75
2021/05/05 05:28:23;;;;;;;2.47;0.60;;;;;;;3.59;78.69;99652.88;6187385;23;20011;-73
2021/05/05 05:30:48;;;;;;;0.70;0.30;;;;;;;3.62;78.65;99647.84;6195373;23;20016;-72
2021/05/05 05:33:14;;;;;;;0.35;0.35;;;;;;;3.73;78.10;99661.56;6223884;23;20106;-73
2021/05/05 05:35:40;;;;;;;1.38;0.50;;;;;;;3.72;78.02;99644.50;6250425;23;20145;-74
2021/05/05 05:38:05;;;;;;;0.70;0.40;;;;;;;3.88;77.63;99669.16;6249522;23;20023;-74
2021/05/05 05:40:31;;;;;;;1.45;0.20;;;;;;;3.95;77.45;99667.13;6247063;23;20004;-73
2021/05/05 05:42:56;;;;;;;1.77;0.35;;;;;;;4.02;77.35;99674.03;6194708;23;20015;-73
2021/05/05 05:45:22;;;;;;;0.10;0.10;;;;;;;4.11;77.10;99684.50;6219527;23;20083;-73
2021/05/05 05:47:47;;;;;;;1.70;0.30;;;;;;;4.10;76.50;99674.72;6244844;23;20362;-74
2021/05/05 05:50:14;;;;;;;0.57;0.40;;;;;;;4.25;76.32;99693.13;6164360;23;20004;-75
2021/05/05 05:52:41;;;;;;;0.35;0.32;;;;;;;4.18;76.23;99675.16;6216075;23;20016;-75
2021/05/05 05:55:08;;;;;;;1.77;0.30;;;;;;;4.33;75.96;99696.25;6221402;23;20012;-73
2021/05/05 05:57:34;;;;;;;0.30;0.30;;;;;;;4.47;75.89;99709.53;6196272;23;20061;-74
2021/05/05 06:00:00;;;;;;;0.93;0.60;;;;;;;4.56;75.54;99708.06;6248436;23;20060;-75
2021/05/05 06:02:25;;;;;;;2.92;0.25;;;;;;;4.67;75.26;99718.00;6251082;23;20015;-74
2021/05/05 06:04:51;;;;;;;0.65;0.20;;;;;;;4.76;75.05;99720.28;6248105;23;20004;-73
2021/05/05 06:07:19;;;;;;;1.05;0.40;;;;;;;4.82;74.85;99709.31;6222060;23;20062;-74
2021/05/05 06:09:44;;;;;;;0.20;0.20;;;;;;;4.92;74.28;99714.09;6249362;23;20032;-75
2021/05/05 06:12:10;;;;;;;0.60;0.25;;;;;;;5.04;74.19;99722.13;6194032;23;20099;-75
2021/05/05 06:14:35;;;;;;;0.57;0.52;;;;;;;5.14;73.96;99726.88;6215517;23;20455;-74
2021/05/05 06:17:03;;;;;;;0.22;0.20;;;;;;;5.23;73.15;99730.81;6241207;23;20054;-75
2021/05/05 06:19:28;;;;;;;0.60;0.30;;;;;;;5.39;73.29;99729.97;6248034;23;20004;-73
2021/05/05 06:21:54;;;;;;;3.30;0.43;;;;;;;5.56;72.78;99735.38;6250466;22;20075;-74
2021/05/05 06:24:19;;;;;;;1.33;0.50;;;;;;;5.79;72.58;99736.22;6251550;22;20030;-74
2021/05/05 06:26:45;;;;;;;2.03;0.20;;;;;;;5.96;71.83;99736.19;6246052;22;19996;-76
2021/05/05 06:29:10;;;;;;;0.70;0.50;;;;;;;6.03;71.36;99734.13;6244710;23;20047;-71
2021/05/05 06:31:41;;;;;;;2.85;0.47;;;;;;;6.06;69.82;99744.47;6249463;22;20039;-80
2021/05/05 06:34:07;;;;;;;0.55;0.32;;;;;;;5.94;69.69;99727.44;6255902;23;20072;-78
2021/05/05 06:36:33;;;;;;;0.47;0.40;;;;;;;6.13;70.08;99743.47;6263028;23;20296;-79
2021/05/05 06:38:59;;;;;;;0.30;0.30;;;;;;;6.16;69.41;99753.81;6258897;23;20004;-78
2021/05/05 06:41:26;;;;;;;1.95;0.10;;;;;;;6.13;69.32;99738.03;6229903;23;20304;-78
2021/05/05 06:44:12;;;;;;;0.30;0.30;;;;;;;6.24;69.80;99742.50;6254895;23;20012;-78
2021/05/05 06:46:54;;;;;;;;;;;;;;;;;;;;;
2021/05/05 06:49:32;;;;;;;3.83;0.68;;;;;;;6.17;68.75;99722.88;6252446;23;20032;-78
2021/05/05 06:54:54;;;;;;;0.93;0.20;;;;;;;6.24;68.61;99735.19;6244830;22;20008;-77
2021/05/05 06:57:49;;;;;;;0.35;0.30;;;;;;;6.30;68.42;99744.22;6254817;23;20071;-79
2021/05/05 07:00:23;;;;;;;0.85;0.85;;;;;;;6.54;68.36;99760.22;6252362;22;20000;-78
2021/05/05 07:03:07;;;;;;;0.17;0.10;;;;;;;6.61;67.99;99766.25;6251914;22;20000;-79
2021/05/05 07:06:03;;;;;;;;;;;;;;;;;;;;;
2021/05/05 07:08:58;;;;;;;0.20;0.20;;;;;;;6.76;66.71;99782.72;6254104;23;20032;-77
2021/05/05 07:11:35;;;;;;;;;;;;;;;;;;;;;
2021/05/05 07:17:17;;;;;;;;;;;;;;;;;;;;;
2021/05/05 07:19:56;;;;;;;;;;;;;;;;;;;;;
2021/05/05 07:22:29;;;;;;;0.32;0.32;;;;;;;7.07;65.38;99783.00;6256805;23;20043;-74
2021/05/05 07:24:56;;;;;;;1.30;0.20;;;;;;;7.15;64.67;99793.44;6260850;23;20000;-78
2021/05/05 07:27:22;;;;;;;0.35;0.30;;;;;;;7.12;64.05;99777.59;6228765;23;20004;-75
2021/05/05 07:29:48;;;;;;;0.30;0.30;;;;;;;7.23;63.80;99775.81;6231337;23;20484;-73
2021/05/05 07:32:14;;;;;;;0.63;0.25;;;;;;;7.34;64.52;99782.13;6227474;23;20007;-76
2021/05/05 07:34:41;;;;;;;0.30;0.30;;;;;;;7.50;64.42;99770.31;6230472;23;20063;-75
2021/05/05 07:37:15;;;;;;;0.25;0.20;;;;;;;7.72;64.37;99769.34;6204069;23;20015;-77
2021/05/05 07:43:20;;;;;;;;;;;;;;;;;;;;;
2021/05/05 07:45:41;;;;;;;;;;;;;;;8.31;62.97;99789.22;6245195;23;20060;-74
2021/05/05 07:48:37;;;;;;;1.13;0.20;;;;;;;8.38;62.00;99787.06;6230670;23;19907;-76
2021/05/05 07:51:09;;;;;;;0.20;0.20;;;;;;;8.51;61.11;99792.06;6211205;23;20008;-74
2021/05/05 07:53:45;;;;;;;;;;;;;;;;;;;;;
2021/05/05 07:56:14;;;;;;;0.20;0.20;;;;;;;8.77;59.56;99794.84;6254784;23;20443;-76
2021/05/05 07:58:45;;;;;;;0.30;0.20;;;;;;;8.89;59.35;99772.78;6256889;23;19992;-76
2021/05/05 08:01:22;;;;;;;1.45;0.28;;;;;;;9.11;57.95;99799.81;6226906;23;19996;-76
2021/05/05 08:03:48;;;;;;;0.47;0.20;;;;;;;9.26;57.08;99786.19;6230215;23;20496;-76
2021/05/05 08:06:14;;;;;;;0.52;0.40;;;;;;;9.21;56.52;99794.38;6202957;23;20004;-77
2021/05/05 08:08:42;;;;;;;1.30;0.20;;;;;;;8.95;56.85;99779.91;6227614;23;20023;-74
2021/05/05 08:11:11;;;;;;;0.22;0.22;;;;;;;9.13;57.55;99802.28;6206743;23;20008;-74
2021/05/05 08:13:37;;;;;;;0.38;0.22;;;;;;;9.24;57.64;99785.66;6236140;23;20419;-74
2021/05/05 08:16:06;;;;;;;0.47;0.20;;;;;;;9.68;58.02;99803.38;6253628;23;20012;-74
2021/05/05 08:18:32;;;;;;;2.47;0.30;;;;;;;10.08;57.03;99798.09;6254416;22;20000;-75
2021/05/05 08:21:01;;;;;;;3.53;0.20;;;;;;;10.22;54.92;99803.75;6223681;23;20012;-74
2021/05/05 08:23:27;;;;;;;1.70;0.30;;;;;;;9.99;53.53;99791.53;6227492;23;20019;-75
2021/05/05 08:25:53;;;;;;;0.22;0.20;;;;;;;9.92;53.91;99817.22;6256663;23;20004;-75
2021/05/05 08:28:19;;;;;;;4.13;0.30;;;;;;;9.83;54.81;99805.25;6253802;23;20007;-75
2021/05/05 08:30:54;;;;;;;2.85;0.30;;;;;;;9.87;54.31;99806.34;6247603;23;20004;-75
2021/05/05 08:33:20;;;;;;;2.03;0.47;;;;;;;9.82;54.11;99819.97;6245659;23;20008;-75
2021/05/05 08:35:45;;;;;;;0.32;0.25;;;;;;;9.64;54.22;99804.16;6246901;23;20362;-74
2021/05/05 08:38:20;;;;;;;5.03;0.40;;;;;;;9.70;55.46;99811.28;6246635;23;20018;-75
2021/05/05 08:40:46;;;;;;;1.52;0.63;;;;;;;9.93;55.65;99820.81;6248808;22;20007;-74
2021/05/05 08:43:15;;;;;;;1.85;0.40;;;;;;;9.98;54.72;99811.78;6246355;22;20004;-73
2021/05/05 08:45:47;;;;;;;2.53;0.70;;;;;;;10.13;54.51;99800.78;6221328;23;20008;-74
2021/05/05 08:48:13;;;;;;;1.77;0.45;;;;;;;10.49;54.44;99811.63;6248561;23;20031;-75
2021/05/05 08:50:41;;;;;;;0.50;0.20;;;;;;;10.86;53.72;99820.44;6246941;23;20008;-74
2021/05/05 08:53:18;;;;;;;0.70;0.30;;;;;;;11.26;53.01;99818.56;6243728;22;20427;-75
2021/05/05 08:55:44;;;;;;;1.30;0.40;;;;;;;11.65;51.98;99818.50;6249542;22;20086;-74
2021/05/05 08:58:11;;;;;;;0.47;0.30;;;;;;;11.95;49.47;99824.78;6247402;23;20346;-75
2021/05/05 09:00:48;;;;;;;;;;;;;;;;;;;;;
2021/05/05 09:03:14;;;;;;;1.52;0.60;;;;;;;12.39;47.01;99814.72;6249415;23;20067;-74
2021/05/05 09:06:04;;;;;;;0.50;0.20;;;;;;;12.68;48.13;99822.03;6242941;22;20019;-74
2021/05/05 09:08:38;;;;;;;0.32;0.15;;;;;;;12.99;47.01;99832.59;6243582;23;20070;-74
2021/05/05 09:11:09;;;;;;;1.20;0.57;;;;;;;12.83;46.40;99823.75;6243640;23;20046;-75
2021/05/05 09:13:58;;;;;;;1.95;0.30;;;;;;;12.61;45.90;99836.09;6245071;22;20350;-75
2021/05/05 09:16:26;;;;;;;0.80;0.40;;;;;;;12.18;47.00;99827.84;6243086;22;20031;-77
2021/05/05 09:18:56;;;;;;;0.80;0.77;;;;;;;11.89;46.47;99828.66;6248641;22;20000;-74
2021/05/05 09:22:11;;;;;;;0.30;0.17;;;;;;;11.95;47.40;99834.94;6250138;22;20007;-76
2021/05/05 09:24:38;;;;;;;0.30;0.30;;;;;;;12.18;47.28;99842.38;6241685;22;20019;-76
2021/05/05 09:27:09;;;;;;;6.95;0.60;;;;;;;12.24;45.86;99840.41;6247003;23;20008;-76
2021/05/05 09:29:37;;;;;;;0.28;0.17;;;;;;;12.37;44.22;99834.19;6247378;23;20096;-75
2021/05/05 09:32:03;;;;;;;1.67;0.20;;;;;;;12.65;45.25;99831.66;6247635;22;20061;-77
2021/05/05 09:34:28;;;;;;;0.73;0.47;;;;;;;13.33;46.53;99813.13;6249649;22;20056;-75
2021/05/05 09:37:00;;;;;;;0.55;0.25;;;;;;;14.36;43.12;99825.03;6221190;23;20407;-76
2021/05/05 09:39:34;;;;;;;0.28;0.20;;;;;;;15.40;40.74;99838.19;6245570;23;20007;-76
2021/05/05 09:42:05;;;;;;;0.82;0.40;;;;;;;15.86;39.37;99828.78;6245622;23;20008;-76
2021/05/05 09:44:31;;;;;;;1.02;0.40;;;;;;;17.06;39.75;99843.66;6245028;23;20390;-77
2021/05/05 09:46:58;;;;;;;0.40;0.20;;;;;;;18.51;40.00;99840.41;6243025;23;20014;-76
2021/05/05 09:49:35;;;;;;;0.30;0.20;;;;;;;19.81;36.00;99839.78;6248877;22;20313;-76
2021/05/05 09:52:12;;;;;;;0.60;0.28;;;;;;;21.00;35.51;99852.81;6243577;23;20004;-75
2021/05/05 09:54:39;;;;;;;2.15;0.20;;;;;;;20.80;28.02;99848.22;6244930;23;20004;-75
2021/05/05 09:57:30;;;;;;;0.00;0.00;;;;;;;20.80;28.72;99853.78;6244083;23;20039;-74
2021/05/05 10:00:16;;;;;;;0.38;0.22;;;;;;;22.05;31.61;99856.59;6246335;23;20004;-77
2021/05/05 10:06:25;;;;;;;;;;;;;;;;;;;;;
2021/05/05 10:09:39;;;;;;;;;;;;;;;;;;;;;
2021/05/05 10:12:00;;;;;;;0.30;0.20;;;;;;;18.61;29.39;99830.94;6251244;22;20004;-78
2021/05/05 10:15:17;;;;;;;;;;;;;;;;;;;;;
2021/05/05 10:20:42;;;;;;;0.63;0.20;;;;;;;19.77;29.29;99867.38;6251944;22;20022;-76
2021/05/05 10:23:08;;;;;;;0.50;0.20;;;;;;;21.04;30.92;99856.53;6255771;23;20000;-76
2021/05/05 10:25:45;;;;;;;;;;;;;;;;;;;;;
2021/05/05 10:28:11;;;;;;;0.10;0.10;;;;;;;23.96;26.02;99849.75;6255247;23;20020;-76
2021/05/05 10:30:41;;;;;;;2.88;0.10;;;;;;;23.84;24.09;99864.63;6263050;23;20024;-76
2021/05/05 10:33:13;;;;;;;3.10;0.10;;;;;;;22.65;24.21;99858.50;6261339;22;20007;-76
2021/05/05 10:35:43;;;;;;;1.30;0.10;;;;;;;22.30;23.15;99862.00;6255902;23;20075;-75
2021/05/05 10:38:51;;;;;;;0.88;0.30;;;;;;;22.21;22.79;99864.97;6254885;22;20004;-76
2021/05/05 10:41:25;;;;;;;3.85;0.20;;;;;;;20.96;22.15;99865.78;6254714;23;20016;-75
2021/05/05 10:43:58;;;;;;;0.45;0.20;;;;;;;19.64;23.98;99843.50;6229054;23;20004;-76
2021/05/05 10:46:29;;;;;;;2.75;0.20;;;;;;;18.69;25.59;99870.78;6251446;23;20008;-76
2021/05/05 10:49:26;;;;;;;0.63;0.63;;;;;;;17.48;28.71;99866.06;6256537;23;20011;-77
2021/05/05 10:52:03;;;;;;;1.30;0.88;;;;;;;15.93;33.28;99880.75;6255582;23;20015;-76
2021/05/05 10:54:59;;;;;;;;;;;;;;;;;;;;;
2021/05/05 10:57:28;;;;;;;0.38;0.35;;;;;;;13.63;38.92;99876.94;6254827;23;20027;-75
2021/05/05 11:00:07;;;;;;;0.70;0.40;;;;;;;13.35;39.87;99876.81;6251439;22;20011;-74
2021/05/05 11:03:01;;;;;;;0.30;0.30;;;;;;;13.35;40.83;99871.34;6250901;23;19996;-75
2021/05/05 11:05:30;;;;;;;0.63;0.63;;;;;;;14.06;42.59;99871.25;6249864;23;20008;-81
2021/05/05 11:08:02;;;;;;;0.47;0.40;;;;;;;15.82;38.68;99866.38;6256289;23;20079;-81
2021/05/05 11:10:58;;;;;;;;;;;;;;;;;;;;;
2021/05/05 11:13:30;;;;;;;;;;;;;;;16.91;34.55;99884.41;6249554;22;20066;-76
2021/05/05 11:15:57;;;;;;;6.80;0.30;;;;;;;17.19;33.67;99881.34;6252175;23;19904;-76
2021/05/05 11:18:29;;;;;;;0.43;0.30;;;;;;;17.17;32.62;99874.50;6257198;23;20027;-76
2021/05/05 11:21:08;;;;;;;0.28;0.28;;;;;;;17.65;33.56;99872.72;6226740;23;20147;-76
2021/05/05 11:23:39;;;;;;;0.55;0.30;;;;;;;19.28;32.01;99869.94;6216476;23;20016;-74
2021/05/05 11:26:43;;;;;;;0.30;0.30;;;;;;;20.32;29.02;99867.28;6248888;23;20004;-77
2021/05/05 11:29:12;;;;;;;0.70;0.20;;;;;;;20.89;28.13;99862.78;6219423;23;20015;-77
2021/05/05 11:31:49;;;;;;;0.35;0.30;;;;;;;21.10;26.75;99868.22;6177587;23;20004;-80
2021/05/05 11:34:20;;;;;;;0.93;0.30;;;;;;;20.21;25.41;99861.38;6226924;23;20011;-79
2021/05/05 11:37:05;;;;;;;0.20;0.20;;;;;;;18.84;28.13;99861.91;6254206;23;20004;-77
2021/05/05 11:39:40;;;;;;;;;;;;;;;;;;;;;
2021/05/05 11:42:21;;;;;;;;;;;;;;;;;;;;;
2021/05/05 11:45:02;;;;;;;;;;;;;;;;;;;;;
2021/05/05 11:48:05;;;;;;;0.10;0.10;;;;;;;18.83;31.54;99866.63;6254154;23;20038;-77
2021/05/05 11:51:00;;;;;;;;;;;;;;;;;;;;;
2021/05/05 11:53:38;;;;;;;0.95;0.10;;;;;;;20.17;31.62;99880.69;6235476;23;20031;-82
2021/05/05 11:56:43;;;;;;;;;;;;;;;;;;;;;
2021/05/05 11:59:16;;;;;;;0.35;0.22;;;;;;;18.84;29.71;99867.44;6258600;23;20039;-76
2021/05/05 12:01:51;;;;;;;;;;;;;;;;;;;;;
2021/05/05 12:04:52;;;;;;;2.10;0.30;;;;;;;19.17;31.67;99844.56;6256214;23;20024;-80
2021/05/05 12:07:21;;;;;;;0.93;0.28;;;;;;;21.17;28.46;99856.47;6230478;23;20004;-81
2021/05/05 12:09:47;;;;;;;0.20;0.20;;;;;;;22.16;25.43;99844.94;6230327;23;20008;-80
2021/05/05 12:12:26;;;;;;;;;;;;;;;;;;;;;
2021/05/05 12:15:10;;;;;;;;;;;;;;;;;;;;;
2021/05/05 12:17:51;;;;;;;;;;;;;;;;;;;;;
2021/05/05 12:20:30;;;;;;;0.45;0.20;;;;;;;21.78;22.90;99853.47;6253605;23;20027;-81
2021/05/05 12:23:10;;;;;;;0.20;0.20;;;;;;;22.63;23.03;99852.47;6226174;23;20008;-80
2021/05/05 12:25:38;;;;;;;0.47;0.40;;;;;;;23.93;25.03;99861.63;6252904;23;20008;-81
2021/05/05 12:28:18;;;;;;;;;;;;;;;;;;;;;
2021/05/05 12:30:48;;;;;;;4.03;0.35;;;;;;;26.44;21.72;99871.06;6253833;23;20020;-81
2021/05/05 12:33:47;;;;;;;;;;;;;;;;;;;;;
2021/05/05 12:36:15;;;;;;;0.30;0.17;;;;;;;25.37;19.58;99852.72;6254776;23;20054;-81
2021/05/05 12:38:49;;;;;;;0.20;0.10;;;;;;;26.02;19.67;99849.88;6224690;23;20000;-80
2021/05/05 12:41:38;;;;;;;0.00;0.00;;;;;;;27.26;17.92;99865.22;6227789;23;19996;-81
2021/05/05 12:44:17;;;;;;;;;;;;;;;;;;;;;
2021/05/05 12:47:06;;;;;;;0.20;0.10;;;;;;;27.08;17.21;99853.91;6255525;23;20402;-81
2021/05/05 12:49:48;;;;;;;0.38;0.20;;;;;;;26.21;17.70;99866.47;6230094;23;20031;-81